createdAt,value
2023-03-10T00:00:28.469Z,48.18
2023-03-10T00:05:29.800Z,48.26
2023-03-10T00:10:31.099Z,48.26
2023-03-10T00:15:32.498Z,48.27
2023-03-10T00:20:33.770Z,47.92
2023-03-10T00:25:35.033Z,47.97
2023-03-10T00:30:36.368Z,47.47
2023-03-10T00:35:37.649Z,47.73
2023-03-10T00:40:39.039Z,47.30
2023-03-10T00:45:40.308Z,47.00
2023-03-10T00:50:41.529Z,47.27
2023-03-10T00:55:42.826Z,47.11
2023-03-10T01:00:44.132Z,47.03
2023-03-10T01:05:45.444Z,46.99
2023-03-10T01:10:46.753Z,46.79
2023-03-10T01:15:48.094Z,46.95
2023-03-10T01:20:49.391Z,46.66
2023-03-10T01:25:50.693Z,46.17
2023-03-10T01:30:51.951Z,46.43
2023-03-10T01:35:53.253Z,46.51
2023-03-10T01:40:54.632Z,46.51
2023-03-10T01:45:55.965Z,46.25
2023-03-10T01:50:57.245Z,45.98
2023-03-10T01:55:58.481Z,45.89
2023-03-10T02:00:59.816Z,45.80
2023-03-10T02:06:01.135Z,45.60
2023-03-10T02:11:02.439Z,45.77
2023-03-10T02:16:03.741Z,45.75
2023-03-10T02:21:05.054Z,45.43
2023-03-10T02:26:06.561Z,45.87
2023-03-10T02:31:08.070Z,45.23
2023-03-10T02:36:09.385Z,45.48
2023-03-10T02:41:10.720Z,45.35
2023-03-10T02:46:12.069Z,45.54
2023-03-10T02:51:13.365Z,45.38
2023-03-10T02:56:14.649Z,45.47
2023-03-10T03:01:15.972Z,46.07
2023-03-10T03:06:17.272Z,46.21
2023-03-10T03:11:18.523Z,46.01
2023-03-10T03:16:19.819Z,46.36
2023-03-10T03:21:21.151Z,46.41
2023-03-10T03:26:22.422Z,46.46
2023-03-10T03:31:23.706Z,46.49
2023-03-10T03:36:24.994Z,46.08
2023-03-10T03:41:26.245Z,46.22
2023-03-10T03:46:27.545Z,46.61
2023-03-10T03:51:28.866Z,46.29
2023-03-10T03:56:30.134Z,46.25
2023-03-10T04:01:31.423Z,46.41
2023-03-10T04:06:32.702Z,46.57
2023-03-10T04:11:34.041Z,46.16
2023-03-10T04:16:35.324Z,46.60
2023-03-10T04:21:36.585Z,46.82
2023-03-10T04:26:37.926Z,47.09
2023-03-10T04:31:39.294Z,47.16
2023-03-10T04:36:40.593Z,46.94
2023-03-10T04:41:41.882Z,47.57
2023-03-10T04:46:43.448Z,48.39
2023-03-10T04:51:44.895Z,50.27
2023-03-10T04:56:46.225Z,49.49
2023-03-10T05:01:48.114Z,49.36
2023-03-10T05:06:49.436Z,49.39
2023-03-10T05:11:50.730Z,49.05
2023-03-10T05:16:52.034Z,49.37
2023-03-10T05:21:53.314Z,48.88
2023-03-10T05:26:54.655Z,48.42
2023-03-10T05:31:56.096Z,48.58
2023-03-10T05:36:57.522Z,49.07
2023-03-10T05:41:58.863Z,48.58
2023-03-10T05:47:00.216Z,48.46
2023-03-10T05:52:01.581Z,48.96
2023-03-10T05:57:02.926Z,49.20
2023-03-10T06:02:04.228Z,49.50
2023-03-10T06:07:05.516Z,49.24
2023-03-10T06:12:06.934Z,49.64
2023-03-10T06:17:08.204Z,49.13
2023-03-10T06:22:09.505Z,48.06
2023-03-10T06:27:10.786Z,48.96
2023-03-10T06:32:12.247Z,49.12
2023-03-10T06:37:13.609Z,48.92
2023-03-10T06:42:14.928Z,49.00
2023-03-10T06:47:16.236Z,48.60
2023-03-10T06:52:17.505Z,48.90
2023-03-10T06:57:20.872Z,48.90
2023-03-10T07:02:22.341Z,48.76
2023-03-10T07:07:23.619Z,48.28
2023-03-10T07:12:24.869Z,48.27
2023-03-10T07:17:26.148Z,48.50
2023-03-10T07:22:27.454Z,48.07
2023-03-10T07:27:28.752Z,47.84
2023-03-10T07:32:30.120Z,48.22
2023-03-10T07:37:31.404Z,47.70
2023-03-10T07:42:32.677Z,47.61
2023-03-10T07:47:33.982Z,47.85
2023-03-10T07:52:35.279Z,47.52
2023-03-10T07:57:36.628Z,47.78
2023-03-10T08:02:38.245Z,47.70
2023-03-10T08:07:39.581Z,47.32
2023-03-10T08:12:40.882Z,47.62
2023-03-10T08:17:42.198Z,47.51
2023-03-10T08:22:43.500Z,47.52
2023-03-10T08:27:44.784Z,47.56
2023-03-10T08:32:46.148Z,47.12
2023-03-10T08:37:47.518Z,47.46
2023-03-10T08:42:48.876Z,47.29
2023-03-10T08:47:50.182Z,47.22
2023-03-10T08:52:51.896Z,46.97
2023-03-10T08:57:53.142Z,47.04
2023-03-10T09:02:54.474Z,47.19
2023-03-10T09:07:55.784Z,47.11
2023-03-10T09:13:12.679Z,47.09
2023-03-10T09:18:14.795Z,46.99
2023-03-10T09:23:16.088Z,46.97
2023-03-10T09:28:18.745Z,46.94
2023-03-10T09:33:20.196Z,46.92
2023-03-10T09:38:21.461Z,46.91
2023-03-10T09:43:22.707Z,46.97
2023-03-10T09:48:26.307Z,46.83
2023-03-10T09:53:27.668Z,46.65
2023-03-10T09:58:28.926Z,46.68
2023-03-10T10:03:31.745Z,46.66
2023-03-10T10:08:34.656Z,46.67
2023-03-10T10:13:35.911Z,46.99
2023-03-10T10:18:37.233Z,46.70
2023-03-10T10:23:38.550Z,46.95
2023-03-10T10:28:39.806Z,46.53
2023-03-10T10:33:43.352Z,46.85
2023-03-10T10:38:44.916Z,46.59
2023-03-10T10:43:46.207Z,46.87
2023-03-10T10:48:47.481Z,46.56
2023-03-10T10:53:48.721Z,46.60
2023-03-10T10:58:50.030Z,46.87
2023-03-10T11:03:51.303Z,47.09
2023-03-10T11:08:52.550Z,47.06
2023-03-10T11:13:53.840Z,47.56
2023-03-10T11:18:55.129Z,47.53
2023-03-10T11:23:56.473Z,47.40
2023-03-10T11:28:57.761Z,47.32
2023-03-10T11:33:59.032Z,47.03
2023-03-10T11:39:00.296Z,47.77
2023-03-10T11:44:01.608Z,47.95
2023-03-10T11:49:02.981Z,47.87
2023-03-10T11:54:04.290Z,48.06
2023-03-10T11:59:05.540Z,47.78
2023-03-10T12:04:06.830Z,47.68
2023-03-10T12:09:08.104Z,47.80
2023-03-10T12:14:09.373Z,48.14
2023-03-10T12:19:10.675Z,47.54
2023-03-10T12:24:14.347Z,47.59
2023-03-10T12:29:15.907Z,47.54
2023-03-10T12:34:17.188Z,47.87
2023-03-10T12:39:18.436Z,47.61
2023-03-10T12:44:19.689Z,47.88
2023-03-10T12:49:20.995Z,47.72
2023-03-10T12:54:22.314Z,47.40
2023-03-10T12:59:23.595Z,47.47
2023-03-10T13:04:24.849Z,47.61
2023-03-10T13:09:26.121Z,47.35
2023-03-10T13:14:27.441Z,47.24
2023-03-10T13:19:28.716Z,47.70
2023-03-10T13:24:30.008Z,47.30
2023-03-10T13:29:31.277Z,47.32
2023-03-10T13:34:32.582Z,47.33
2023-03-10T13:39:33.957Z,47.54
2023-03-10T13:44:35.280Z,47.13
2023-03-10T13:49:36.592Z,47.15
2023-03-10T13:54:37.855Z,47.18
2023-03-10T13:59:39.079Z,47.38
2023-03-10T14:04:40.328Z,47.07
2023-03-10T14:09:41.611Z,47.16
2023-03-10T14:14:42.880Z,47.06
2023-03-10T14:19:44.116Z,47.02
2023-03-10T14:24:45.532Z,47.08
2023-03-10T14:29:46.793Z,47.35
2023-03-10T14:34:48.077Z,47.37
2023-03-10T14:39:49.328Z,46.82
2023-03-10T14:44:50.696Z,46.73
2023-03-10T14:49:51.980Z,46.94
2023-03-10T14:54:53.242Z,47.22
2023-03-10T14:59:54.513Z,46.93
2023-03-10T15:04:55.996Z,47.17
2023-03-10T15:10:10.528Z,46.92
2023-03-10T15:15:12.726Z,47.04
2023-03-10T15:20:13.996Z,47.01
2023-03-10T15:25:15.279Z,47.53
2023-03-10T15:30:16.552Z,47.66
2023-03-10T15:35:17.834Z,47.46
2023-03-10T15:40:19.231Z,47.81
2023-03-10T15:45:20.476Z,47.67
2023-03-10T15:50:21.936Z,47.58
2023-03-10T15:55:23.312Z,47.62
2023-03-10T16:00:24.668Z,47.70
2023-03-10T16:05:26.005Z,47.79
2023-03-10T16:10:27.356Z,48.14
2023-03-10T16:15:28.585Z,48.92
2023-03-10T16:20:29.905Z,48.69
2023-03-10T16:25:31.330Z,48.87
2023-03-10T16:30:32.670Z,49.40
2023-03-10T16:35:33.981Z,49.34
2023-03-10T16:40:35.292Z,49.51
2023-03-10T16:45:36.672Z,49.51
2023-03-10T16:50:38.106Z,49.51
2023-03-10T16:55:39.415Z,49.76
2023-03-10T17:00:40.710Z,49.86
2023-03-10T17:05:41.974Z,49.58
2023-03-10T17:10:44.342Z,49.58
2023-03-10T17:15:45.642Z,49.80
2023-03-10T17:20:47.014Z,50.48
2023-03-10T17:25:48.338Z,51.01
2023-03-10T17:30:49.681Z,50.96
2023-03-10T17:35:50.984Z,51.46
2023-03-10T17:40:52.356Z,51.79
2023-03-10T17:45:53.786Z,51.71
2023-03-10T17:50:55.184Z,51.97
2023-03-10T17:55:56.506Z,51.59
2023-03-10T18:00:58.136Z,52.38
2023-03-10T18:05:59.401Z,52.88
2023-03-10T18:11:00.696Z,53.81
2023-03-10T18:16:02.069Z,53.66
2023-03-10T18:21:03.401Z,53.00
2023-03-10T18:26:04.720Z,52.98
2023-03-10T18:31:06.170Z,53.14
2023-03-10T18:36:07.486Z,52.45
2023-03-10T18:41:08.797Z,52.74
2023-03-10T18:46:10.428Z,52.17
2023-03-10T18:51:11.686Z,52.03
2023-03-10T18:56:12.951Z,51.84
2023-03-10T19:01:14.330Z,51.88
2023-03-10T19:06:15.607Z,51.91
2023-03-10T19:11:16.857Z,51.76
2023-03-10T19:16:18.252Z,52.37
2023-03-10T19:21:21.925Z,51.93
2023-03-10T19:26:24.077Z,52.06
2023-03-10T19:31:25.501Z,52.41
2023-03-10T19:36:26.860Z,52.59
2023-03-10T19:41:28.169Z,52.74
2023-03-10T19:46:29.533Z,52.91
2023-03-10T19:51:30.812Z,53.30
2023-03-10T19:56:32.116Z,53.48
2023-03-10T20:01:33.530Z,53.87
2023-03-10T20:06:34.803Z,54.44
2023-03-10T20:11:36.089Z,54.09
2023-03-10T20:16:37.435Z,53.75
2023-03-10T20:21:38.872Z,54.10
2023-03-10T20:26:40.104Z,54.02
2023-03-10T20:31:41.413Z,54.39
2023-03-10T20:36:42.794Z,54.29
2023-03-10T20:41:45.123Z,54.63
2023-03-10T20:46:46.523Z,54.65
2023-03-10T20:51:47.868Z,54.69
2023-03-10T20:56:49.129Z,54.72
2023-03-10T21:01:50.400Z,54.72
2023-03-10T21:06:51.663Z,54.47
2023-03-10T21:11:52.927Z,54.54
2023-03-10T21:16:54.384Z,54.17
2023-03-10T21:21:55.785Z,53.77
2023-03-10T21:26:57.054Z,54.07
2023-03-10T21:31:58.421Z,53.81
2023-03-10T21:36:59.720Z,53.51
2023-03-10T21:42:01.053Z,53.90
2023-03-10T21:47:02.362Z,53.74
2023-03-10T21:52:03.756Z,53.43
2023-03-10T21:57:05.040Z,53.50
2023-03-10T22:02:06.348Z,53.56
2023-03-10T22:07:07.601Z,53.30
2023-03-10T22:12:08.893Z,53.17
2023-03-10T22:17:10.190Z,53.12
2023-03-10T22:22:11.479Z,53.15
2023-03-10T22:27:12.741Z,53.04
2023-03-10T22:32:14.124Z,52.92
2023-03-10T22:37:15.415Z,52.56
2023-03-10T22:42:16.689Z,52.79
2023-03-10T22:47:17.991Z,52.32
2023-03-10T22:52:19.305Z,52.33
2023-03-10T22:57:20.567Z,52.52
2023-03-10T23:02:21.867Z,52.34
2023-03-10T23:07:23.137Z,52.29
2023-03-10T23:12:24.408Z,51.77
2023-03-10T23:17:25.717Z,51.85
2023-03-10T23:22:26.984Z,51.51
2023-03-10T23:27:28.245Z,51.97
2023-03-10T23:32:29.596Z,51.82
2023-03-10T23:37:30.947Z,51.70
2023-03-10T23:42:32.261Z,51.69
2023-03-10T23:47:33.509Z,51.50
2023-03-10T23:52:34.782Z,51.14
2023-03-10T23:57:36.077Z,51.00
